sensor_id;sensor_type;location;lat;lon;timestamp;P1;durP1;ratioP1;P2;durP2;ratioP2
9117;SDS011;4594;50.994;7.126;2023-12-20T00:01:21;8.47;;;7.77;;
9117;SDS011;4594;50.994;7.126;2023-12-20T00:03:47;7.60;;;6.93;;
9117;SDS011;4594;50.994;7.126;2023-12-20T00:06:13;7.93;;;7.13;;
9117;SDS011;4594;50.994;7.126;2023-12-20T00:08:39;7.87;;;7.17;;
9117;SDS011;4594;50.994;7.126;2023-12-20T00:11:05;7.17;;;6.53;;
9117;SDS011;4594;50.994;7.126;2023-12-20T00:13:30;7.70;;;7.00;;
9117;SDS011;4594;50.994;7.126;2023-12-20T00:15:56;7.00;;;6.30;;
9117;SDS011;4594;50.994;7.126;2023-12-20T00:18:22;7.57;;;6.93;;
9117;SDS011;4594;50.994;7.126;2023-12-20T00:20:48;7.67;;;6.97;;
9117;SDS011;4594;50.994;7.126;2023-12-20T00:23:14;7.90;;;7.17;;
9117;SDS011;4594;50.994;7.126;2023-12-20T00:25:40;7.57;;;6.87;;
9117;SDS011;4594;50.994;7.126;2023-12-20T00:28:06;7.83;;;7.03;;
9117;SDS011;4594;50.994;7.126;2023-12-20T00:30:32;7.33;;;6.73;;
9117;SDS011;4594;50.994;7.126;2023-12-20T00:32:57;7.07;;;6.37;;
9117;SDS011;4594;50.994;7.126;2023-12-20T00:35:23;7.27;;;6.67;;
9117;SDS011;4594;50.994;7.126;2023-12-20T00:37:49;6.67;;;6.13;;
9117;SDS011;4594;50.994;7.126;2023-12-20T00:40:15;6.57;;;6.03;;
9117;SDS011;4594;50.994;7.126;2023-12-20T00:42:41;6.80;;;6.30;;
9117;SDS011;4594;50.994;7.126;2023-12-20T00:45:07;6.53;;;5.90;;
9117;SDS011;4594;50.994;7.126;2023-12-20T00:47:33;5.67;;;5.17;;
9117;SDS011;4594;50.994;7.126;2023-12-20T00:49:58;4.47;;;4.07;;
9117;SDS011;4594;50.994;7.126;2023-12-20T00:52:24;3.93;;;3.33;;
9117;SDS011;4594;50.994;7.126;2023-12-20T00:54:50;3.50;;;3.30;;
9117;SDS011;4594;50.994;7.126;2023-12-20T00:57:16;3.60;;;3.23;;
9117;SDS011;4594;50.994;7.126;2023-12-20T00:59:42;3.13;;;2.97;;
9117;SDS011;4594;50.994;7.126;2023-12-20T01:02:08;3.30;;;3.10;;
9117;SDS011;4594;50.994;7.126;2023-12-20T01:04:34;3.67;;;3.47;;
9117;SDS011;4594;50.994;7.126;2023-12-20T01:07:00;3.83;;;3.63;;
9117;SDS011;4594;50.994;7.126;2023-12-20T01:09:27;4.07;;;3.63;;
9117;SDS011;4594;50.994;7.126;2023-12-20T01:11:53;4.03;;;3.70;;
9117;SDS011;4594;50.994;7.126;2023-12-20T01:14:19;4.07;;;3.80;;
9117;SDS011;4594;50.994;7.126;2023-12-20T01:16:45;3.73;;;3.37;;
9117;SDS011;4594;50.994;7.126;2023-12-20T01:19:11;4.43;;;3.83;;
9117;SDS011;4594;50.994;7.126;2023-12-20T01:21:38;5.30;;;4.07;;
9117;SDS011;4594;50.994;7.126;2023-12-20T01:24:04;4.23;;;3.93;;
9117;SDS011;4594;50.994;7.126;2023-12-20T01:26:30;4.70;;;4.20;;
9117;SDS011;4594;50.994;7.126;2023-12-20T01:28:55;4.03;;;3.60;;
9117;SDS011;4594;50.994;7.126;2023-12-20T01:31:21;3.97;;;3.67;;
9117;SDS011;4594;50.994;7.126;2023-12-20T01:33:47;4.00;;;3.70;;
9117;SDS011;4594;50.994;7.126;2023-12-20T01:36:12;4.33;;;3.90;;
9117;SDS011;4594;50.994;7.126;2023-12-20T01:38:38;4.20;;;3.90;;
9117;SDS011;4594;50.994;7.126;2023-12-20T01:41:04;7.87;;;3.90;;
9117;SDS011;4594;50.994;7.126;2023-12-20T01:43:29;4.53;;;4.13;;
9117;SDS011;4594;50.994;7.126;2023-12-20T01:45:56;4.37;;;3.70;;
9117;SDS011;4594;50.994;7.126;2023-12-20T01:48:23;4.50;;;4.07;;
9117;SDS011;4594;50.994;7.126;2023-12-20T01:50:51;6.33;;;4.60;;
9117;SDS011;4594;50.994;7.126;2023-12-20T01:53:18;11.07;;;4.50;;
9117;SDS011;4594;50.994;7.126;2023-12-20T01:55:49;7.67;;;4.90;;
9117;SDS011;4594;50.994;7.126;2023-12-20T01:58:19;8.27;;;5.33;;
9117;SDS011;4594;50.994;7.126;2023-12-20T02:00:45;9.23;;;6.07;;
9117;SDS011;4594;50.994;7.126;2023-12-20T02:03:12;8.97;;;6.30;;
9117;SDS011;4594;50.994;7.126;2023-12-20T02:05:38;7.77;;;6.27;;
9117;SDS011;4594;50.994;7.126;2023-12-20T02:08:05;10.27;;;6.70;;
9117;SDS011;4594;50.994;7.126;2023-12-20T02:10:31;9.63;;;6.27;;
9117;SDS011;4594;50.994;7.126;2023-12-20T02:12:57;9.47;;;6.47;;
9117;SDS011;4594;50.994;7.126;2023-12-20T02:15:23;10.37;;;6.53;;
9117;SDS011;4594;50.994;7.126;2023-12-20T02:17:49;11.03;;;7.17;;
9117;SDS011;4594;50.994;7.126;2023-12-20T02:20:16;7.80;;;6.53;;
9117;SDS011;4594;50.994;7.126;2023-12-20T02:22:41;13.37;;;7.50;;
9117;SDS011;4594;50.994;7.126;2023-12-20T02:25:07;10.60;;;7.47;;
9117;SDS011;4594;50.994;7.126;2023-12-20T02:27:33;11.70;;;8.37;;
9117;SDS011;4594;50.994;7.126;2023-12-20T02:30:00;13.67;;;7.80;;
9117;SDS011;4594;50.994;7.126;2023-12-20T02:32:26;12.77;;;7.83;;
9117;SDS011;4594;50.994;7.126;2023-12-20T02:34:52;9.27;;;7.40;;
9117;SDS011;4594;50.994;7.126;2023-12-20T02:37:19;8.57;;;6.93;;
9117;SDS011;4594;50.994;7.126;2023-12-20T02:39:45;9.17;;;6.20;;
9117;SDS011;4594;50.994;7.126;2023-12-20T02:42:11;7.43;;;6.30;;
9117;SDS011;4594;50.994;7.126;2023-12-20T02:44:37;12.00;;;6.30;;
9117;SDS011;4594;50.994;7.126;2023-12-20T02:47:02;7.13;;;5.33;;
9117;SDS011;4594;50.994;7.126;2023-12-20T02:49:28;10.60;;;6.27;;
9117;SDS011;4594;50.994;7.126;2023-12-20T02:51:54;12.63;;;5.20;;
9117;SDS011;4594;50.994;7.126;2023-12-20T02:54:20;7.63;;;5.07;;
9117;SDS011;4594;50.994;7.126;2023-12-20T02:56:46;8.40;;;4.93;;
9117;SDS011;4594;50.994;7.126;2023-12-20T02:59:12;6.90;;;5.07;;
9117;SDS011;4594;50.994;7.126;2023-12-20T03:01:45;15.90;;;5.40;;
9117;SDS011;4594;50.994;7.126;2023-12-20T03:04:11;11.27;;;5.20;;
9117;SDS011;4594;50.994;7.126;2023-12-20T03:06:38;7.10;;;5.23;;
9117;SDS011;4594;50.994;7.126;2023-12-20T03:09:04;8.83;;;5.17;;
9117;SDS011;4594;50.994;7.126;2023-12-20T03:11:30;8.10;;;4.87;;
9117;SDS011;4594;50.994;7.126;2023-12-20T03:13:56;5.70;;;4.50;;
9117;SDS011;4594;50.994;7.126;2023-12-20T03:16:22;10.07;;;4.90;;
9117;SDS011;4594;50.994;7.126;2023-12-20T03:18:48;4.90;;;4.00;;
9117;SDS011;4594;50.994;7.126;2023-12-20T03:21:14;8.77;;;4.40;;
9117;SDS011;4594;50.994;7.126;2023-12-20T03:23:40;9.07;;;4.50;;
9117;SDS011;4594;50.994;7.126;2023-12-20T03:26:07;6.53;;;3.67;;
9117;SDS011;4594;50.994;7.126;2023-12-20T03:28:33;5.93;;;3.43;;
9117;SDS011;4594;50.994;7.126;2023-12-20T03:31:01;10.83;;;4.00;;
9117;SDS011;4594;50.994;7.126;2023-12-20T03:33:27;9.33;;;3.73;;
9117;SDS011;4594;50.994;7.126;2023-12-20T03:35:53;8.53;;;3.30;;
9117;SDS011;4594;50.994;7.126;2023-12-20T03:38:20;9.30;;;3.37;;
9117;SDS011;4594;50.994;7.126;2023-12-20T03:40:48;10.53;;;3.27;;
9117;SDS011;4594;50.994;7.126;2023-12-20T03:43:15;6.13;;;3.00;;
9117;SDS011;4594;50.994;7.126;2023-12-20T03:45:41;10.73;;;3.33;;
9117;SDS011;4594;50.994;7.126;2023-12-20T03:48:08;8.63;;;3.53;;
9117;SDS011;4594;50.994;7.126;2023-12-20T03:50:34;4.13;;;2.87;;
9117;SDS011;4594;50.994;7.126;2023-12-20T03:53:00;8.13;;;3.30;;
9117;SDS011;4594;50.994;7.126;2023-12-20T03:55:26;8.30;;;3.33;;
9117;SDS011;4594;50.994;7.126;2023-12-20T03:57:52;8.53;;;3.37;;
9117;SDS011;4594;50.994;7.126;2023-12-20T04:00:18;8.37;;;3.10;;
9117;SDS011;4594;50.994;7.126;2023-12-20T04:02:44;5.73;;;3.00;;
9117;SDS011;4594;50.994;7.126;2023-12-20T04:05:10;7.80;;;2.70;;
9117;SDS011;4594;50.994;7.126;2023-12-20T04:07:36;6.33;;;3.17;;
9117;SDS011;4594;50.994;7.126;2023-12-20T04:10:02;6.70;;;3.10;;
9117;SDS011;4594;50.994;7.126;2023-12-20T04:12:29;8.40;;;3.40;;
9117;SDS011;4594;50.994;7.126;2023-12-20T04:14:55;10.67;;;3.23;;
9117;SDS011;4594;50.994;7.126;2023-12-20T04:17:22;5.20;;;2.97;;
9117;SDS011;4594;50.994;7.126;2023-12-20T04:19:48;5.80;;;2.90;;
9117;SDS011;4594;50.994;7.126;2023-12-20T04:22:15;7.93;;;3.07;;
9117;SDS011;4594;50.994;7.126;2023-12-20T04:24:42;8.03;;;3.70;;
9117;SDS011;4594;50.994;7.126;2023-12-20T04:27:08;8.67;;;3.10;;
9117;SDS011;4594;50.994;7.126;2023-12-20T04:29:34;7.27;;;4.17;;
9117;SDS011;4594;50.994;7.126;2023-12-20T04:31:59;7.57;;;3.33;;
9117;SDS011;4594;50.994;7.126;2023-12-20T04:34:25;12.30;;;3.87;;
9117;SDS011;4594;50.994;7.126;2023-12-20T04:36:51;7.13;;;3.13;;
9117;SDS011;4594;50.994;7.126;2023-12-20T04:39:18;5.07;;;3.07;;
9117;SDS011;4594;50.994;7.126;2023-12-20T04:41:43;5.83;;;2.90;;
9117;SDS011;4594;50.994;7.126;2023-12-20T04:44:09;11.37;;;3.60;;
9117;SDS011;4594;50.994;7.126;2023-12-20T04:46:35;10.90;;;3.93;;
9117;SDS011;4594;50.994;7.126;2023-12-20T04:49:01;8.27;;;3.23;;
9117;SDS011;4594;50.994;7.126;2023-12-20T04:51:27;5.93;;;3.07;;
9117;SDS011;4594;50.994;7.126;2023-12-20T04:53:52;4.30;;;3.17;;
9117;SDS011;4594;50.994;7.126;2023-12-20T04:56:18;6.17;;;2.97;;
9117;SDS011;4594;50.994;7.126;2023-12-20T04:58:44;6.03;;;3.50;;
9117;SDS011;4594;50.994;7.126;2023-12-20T05:01:10;10.43;;;3.53;;
9117;SDS011;4594;50.994;7.126;2023-12-20T05:03:36;6.87;;;3.83;;
9117;SDS011;4594;50.994;7.126;2023-12-20T05:06:02;4.00;;;3.50;;
9117;SDS011;4594;50.994;7.126;2023-12-20T05:08:28;6.27;;;3.70;;
9117;SDS011;4594;50.994;7.126;2023-12-20T05:10:54;5.43;;;3.27;;
9117;SDS011;4594;50.994;7.126;2023-12-20T05:13:20;12.43;;;3.97;;
9117;SDS011;4594;50.994;7.126;2023-12-20T05:15:47;8.00;;;3.93;;
9117;SDS011;4594;50.994;7.126;2023-12-20T05:18:13;12.53;;;4.53;;
9117;SDS011;4594;50.994;7.126;2023-12-20T05:20:39;3.57;;;3.27;;
9117;SDS011;4594;50.994;7.126;2023-12-20T05:23:05;6.20;;;3.50;;
9117;SDS011;4594;50.994;7.126;2023-12-20T05:25:31;10.93;;;4.27;;
9117;SDS011;4594;50.994;7.126;2023-12-20T05:27:57;5.00;;;3.20;;
9117;SDS011;4594;50.994;7.126;2023-12-20T05:30:23;5.07;;;3.10;;
9117;SDS011;4594;50.994;7.126;2023-12-20T05:32:49;5.50;;;3.53;;
9117;SDS011;4594;50.994;7.126;2023-12-20T05:35:14;6.97;;;4.10;;
9117;SDS011;4594;50.994;7.126;2023-12-20T05:37:41;9.53;;;4.10;;
9117;SDS011;4594;50.994;7.126;2023-12-20T05:40:07;5.07;;;3.57;;
9117;SDS011;4594;50.994;7.126;2023-12-20T05:42:35;10.13;;;3.47;;
9117;SDS011;4594;50.994;7.126;2023-12-20T05:45:02;8.20;;;3.90;;
9117;SDS011;4594;50.994;7.126;2023-12-20T05:47:29;5.77;;;3.33;;
9117;SDS011;4594;50.994;7.126;2023-12-20T05:49:55;12.27;;;4.53;;
9117;SDS011;4594;50.994;7.126;2023-12-20T05:52:20;7.90;;;4.03;;
9117;SDS011;4594;50.994;7.126;2023-12-20T05:54:46;4.60;;;3.80;;
9117;SDS011;4594;50.994;7.126;2023-12-20T05:57:12;9.13;;;4.20;;
9117;SDS011;4594;50.994;7.126;2023-12-20T05:59:38;7.57;;;4.17;;
9117;SDS011;4594;50.994;7.126;2023-12-20T06:02:04;9.03;;;3.83;;
9117;SDS011;4594;50.994;7.126;2023-12-20T06:04:30;6.70;;;3.83;;
9117;SDS011;4594;50.994;7.126;2023-12-20T06:06:57;6.10;;;3.77;;
9117;SDS011;4594;50.994;7.126;2023-12-20T06:09:23;8.17;;;4.20;;
9117;SDS011;4594;50.994;7.126;2023-12-20T06:11:49;5.50;;;3.47;;
9117;SDS011;4594;50.994;7.126;2023-12-20T06:14:16;8.57;;;3.73;;
9117;SDS011;4594;50.994;7.126;2023-12-20T06:16:41;10.17;;;3.90;;
9117;SDS011;4594;50.994;7.126;2023-12-20T06:19:07;8.90;;;4.37;;
9117;SDS011;4594;50.994;7.126;2023-12-20T06:21:33;8.90;;;4.37;;
9117;SDS011;4594;50.994;7.126;2023-12-20T06:23:59;6.13;;;3.37;;
9117;SDS011;4594;50.994;7.126;2023-12-20T06:26:25;6.53;;;3.57;;
9117;SDS011;4594;50.994;7.126;2023-12-20T06:28:51;8.27;;;3.80;;
9117;SDS011;4594;50.994;7.126;2023-12-20T06:31:16;7.37;;;3.20;;
9117;SDS011;4594;50.994;7.126;2023-12-20T06:33:42;7.33;;;3.27;;
9117;SDS011;4594;50.994;7.126;2023-12-20T06:36:12;11.37;;;3.90;;
9117;SDS011;4594;50.994;7.126;2023-12-20T06:38:39;4.93;;;3.57;;
9117;SDS011;4594;50.994;7.126;2023-12-20T06:41:05;10.90;;;3.67;;
9117;SDS011;4594;50.994;7.126;2023-12-20T06:43:31;11.87;;;4.27;;
9117;SDS011;4594;50.994;7.126;2023-12-20T06:45:57;6.53;;;3.47;;
9117;SDS011;4594;50.994;7.126;2023-12-20T06:48:25;9.83;;;4.37;;
9117;SDS011;4594;50.994;7.126;2023-12-20T06:50:51;8.47;;;3.50;;
9117;SDS011;4594;50.994;7.126;2023-12-20T06:53:16;6.60;;;4.20;;
9117;SDS011;4594;50.994;7.126;2023-12-20T06:55:42;10.10;;;4.23;;
9117;SDS011;4594;50.994;7.126;2023-12-20T06:58:08;18.20;;;3.77;;
9117;SDS011;4594;50.994;7.126;2023-12-20T07:00:33;12.70;;;4.00;;
9117;SDS011;4594;50.994;7.126;2023-12-20T07:03:00;10.53;;;3.67;;
9117;SDS011;4594;50.994;7.126;2023-12-20T07:05:25;11.40;;;3.70;;
9117;SDS011;4594;50.994;7.126;2023-12-20T07:07:51;6.30;;;3.47;;
9117;SDS011;4594;50.994;7.126;2023-12-20T07:10:17;6.77;;;3.60;;
9117;SDS011;4594;50.994;7.126;2023-12-20T07:12:43;10.37;;;3.80;;
9117;SDS011;4594;50.994;7.126;2023-12-20T07:15:09;8.40;;;3.37;;
9117;SDS011;4594;50.994;7.126;2023-12-20T07:17:35;7.97;;;3.70;;
9117;SDS011;4594;50.994;7.126;2023-12-20T07:20:01;13.67;;;3.63;;
9117;SDS011;4594;50.994;7.126;2023-12-20T07:22:31;11.60;;;4.00;;
9117;SDS011;4594;50.994;7.126;2023-12-20T07:24:58;9.47;;;3.70;;
9117;SDS011;4594;50.994;7.126;2023-12-20T07:27:25;5.60;;;3.30;;
9117;SDS011;4594;50.994;7.126;2023-12-20T07:29:51;10.40;;;3.53;;
9117;SDS011;4594;50.994;7.126;2023-12-20T07:32:17;9.50;;;3.20;;
9117;SDS011;4594;50.994;7.126;2023-12-20T07:34:43;11.13;;;3.47;;
9117;SDS011;4594;50.994;7.126;2023-12-20T07:37:09;11.90;;;3.73;;
9117;SDS011;4594;50.994;7.126;2023-12-20T07:39:36;8.83;;;3.73;;
9117;SDS011;4594;50.994;7.126;2023-12-20T07:42:05;7.43;;;3.00;;
9117;SDS011;4594;50.994;7.126;2023-12-20T07:44:32;8.23;;;3.20;;
9117;SDS011;4594;50.994;7.126;2023-12-20T07:46:57;8.73;;;3.70;;
9117;SDS011;4594;50.994;7.126;2023-12-20T07:49:23;10.93;;;4.07;;
9117;SDS011;4594;50.994;7.126;2023-12-20T07:51:49;10.30;;;3.60;;
9117;SDS011;4594;50.994;7.126;2023-12-20T07:54:15;12.07;;;3.70;;
9117;SDS011;4594;50.994;7.126;2023-12-20T07:56:41;9.63;;;4.07;;
9117;SDS011;4594;50.994;7.126;2023-12-20T07:59:07;3.50;;;3.17;;
9117;SDS011;4594;50.994;7.126;2023-12-20T08:01:33;10.73;;;3.93;;
9117;SDS011;4594;50.994;7.126;2023-12-20T08:03:59;7.00;;;3.30;;
9117;SDS011;4594;50.994;7.126;2023-12-20T08:06:24;12.73;;;3.73;;
9117;SDS011;4594;50.994;7.126;2023-12-20T08:08:50;7.97;;;4.00;;
9117;SDS011;4594;50.994;7.126;2023-12-20T08:11:16;5.60;;;3.37;;
9117;SDS011;4594;50.994;7.126;2023-12-20T08:13:42;12.13;;;4.03;;
9117;SDS011;4594;50.994;7.126;2023-12-20T08:16:08;12.70;;;4.43;;
9117;SDS011;4594;50.994;7.126;2023-12-20T08:18:34;8.87;;;3.80;;
9117;SDS011;4594;50.994;7.126;2023-12-20T08:21:00;7.83;;;4.03;;
9117;SDS011;4594;50.994;7.126;2023-12-20T08:23:26;8.73;;;4.00;;
9117;SDS011;4594;50.994;7.126;2023-12-20T08:25:52;11.33;;;4.27;;
9117;SDS011;4594;50.994;7.126;2023-12-20T08:28:18;10.67;;;3.67;;
9117;SDS011;4594;50.994;7.126;2023-12-20T08:30:43;11.23;;;5.53;;
9117;SDS011;4594;50.994;7.126;2023-12-20T08:33:09;13.90;;;4.10;;
9117;SDS011;4594;50.994;7.126;2023-12-20T08:35:38;16.03;;;4.40;;
9117;SDS011;4594;50.994;7.126;2023-12-20T08:38:05;4.23;;;3.40;;
9117;SDS011;4594;50.994;7.126;2023-12-20T08:40:31;11.10;;;4.10;;
9117;SDS011;4594;50.994;7.126;2023-12-20T08:42:57;9.40;;;3.77;;
9117;SDS011;4594;50.994;7.126;2023-12-20T08:45:22;8.50;;;3.47;;
9117;SDS011;4594;50.994;7.126;2023-12-20T08:47:48;6.57;;;3.70;;
9117;SDS011;4594;50.994;7.126;2023-12-20T08:50:14;13.43;;;4.30;;
9117;SDS011;4594;50.994;7.126;2023-12-20T08:52:40;5.27;;;3.57;;
9117;SDS011;4594;50.994;7.126;2023-12-20T08:55:07;11.17;;;4.37;;
9117;SDS011;4594;50.994;7.126;2023-12-20T08:57:33;13.43;;;4.27;;
9117;SDS011;4594;50.994;7.126;2023-12-20T08:59:59;10.10;;;3.73;;
9117;SDS011;4594;50.994;7.126;2023-12-20T09:02:24;11.00;;;3.63;;
9117;SDS011;4594;50.994;7.126;2023-12-20T09:04:50;9.63;;;3.87;;
9117;SDS011;4594;50.994;7.126;2023-12-20T09:07:25;7.47;;;3.50;;
9117;SDS011;4594;50.994;7.126;2023-12-20T09:09:52;8.50;;;3.73;;
9117;SDS011;4594;50.994;7.126;2023-12-20T09:12:18;7.77;;;3.70;;
9117;SDS011;4594;50.994;7.126;2023-12-20T09:14:48;7.53;;;3.30;;
9117;SDS011;4594;50.994;7.126;2023-12-20T09:17:15;7.27;;;3.83;;
9117;SDS011;4594;50.994;7.126;2023-12-20T09:19:42;7.67;;;3.30;;
9117;SDS011;4594;50.994;7.126;2023-12-20T09:22:09;9.53;;;3.87;;
9117;SDS011;4594;50.994;7.126;2023-12-20T09:24:35;6.47;;;3.20;;
9117;SDS011;4594;50.994;7.126;2023-12-20T09:27:01;6.67;;;3.80;;
9117;SDS011;4594;50.994;7.126;2023-12-20T09:29:27;7.53;;;4.07;;
9117;SDS011;4594;50.994;7.126;2023-12-20T09:31:54;9.07;;;3.70;;
9117;SDS011;4594;50.994;7.126;2023-12-20T09:34:20;7.60;;;3.53;;
9117;SDS011;4594;50.994;7.126;2023-12-20T09:36:46;9.43;;;4.00;;
9117;SDS011;4594;50.994;7.126;2023-12-20T09:39:13;13.13;;;5.03;;
9117;SDS011;4594;50.994;7.126;2023-12-20T09:41:46;12.20;;;5.23;;
9117;SDS011;4594;50.994;7.126;2023-12-20T09:44:27;9.70;;;4.13;;
9117;SDS011;4594;50.994;7.126;2023-12-20T09:46:54;6.23;;;3.30;;
9117;SDS011;4594;50.994;7.126;2023-12-20T09:49:21;11.73;;;5.90;;
9117;SDS011;4594;50.994;7.126;2023-12-20T09:51:48;14.83;;;4.80;;
9117;SDS011;4594;50.994;7.126;2023-12-20T09:54:17;6.80;;;3.73;;
9117;SDS011;4594;50.994;7.126;2023-12-20T09:56:46;12.40;;;3.97;;
9117;SDS011;4594;50.994;7.126;2023-12-20T09:59:12;9.23;;;3.43;;
9117;SDS011;4594;50.994;7.126;2023-12-20T10:01:42;14.63;;;4.63;;
9117;SDS011;4594;50.994;7.126;2023-12-20T10:04:09;7.87;;;3.43;;
9117;SDS011;4594;50.994;7.126;2023-12-20T10:06:40;8.20;;;3.30;;
9117;SDS011;4594;50.994;7.126;2023-12-20T10:09:07;10.63;;;3.47;;
9117;SDS011;4594;50.994;7.126;2023-12-20T10:11:34;9.40;;;4.33;;
9117;SDS011;4594;50.994;7.126;2023-12-20T10:14:04;7.53;;;3.73;;
9117;SDS011;4594;50.994;7.126;2023-12-20T10:16:31;8.90;;;3.63;;
9117;SDS011;4594;50.994;7.126;2023-12-20T10:18:59;9.97;;;3.67;;
9117;SDS011;4594;50.994;7.126;2023-12-20T10:21:29;4.20;;;3.30;;
9117;SDS011;4594;50.994;7.126;2023-12-20T10:23:55;5.33;;;3.27;;
9117;SDS011;4594;50.994;7.126;2023-12-20T10:26:22;10.23;;;3.67;;
9117;SDS011;4594;50.994;7.126;2023-12-20T10:28:51;6.37;;;3.43;;
9117;SDS011;4594;50.994;7.126;2023-12-20T10:31:34;6.67;;;3.57;;
9117;SDS011;4594;50.994;7.126;2023-12-20T10:34:02;11.00;;;4.13;;
9117;SDS011;4594;50.994;7.126;2023-12-20T10:36:31;8.87;;;3.90;;
9117;SDS011;4594;50.994;7.126;2023-12-20T10:38:58;10.67;;;3.90;;
9117;SDS011;4594;50.994;7.126;2023-12-20T10:41:25;7.80;;;3.40;;
9117;SDS011;4594;50.994;7.126;2023-12-20T10:44:00;10.97;;;3.97;;
9117;SDS011;4594;50.994;7.126;2023-12-20T10:46:28;6.67;;;3.23;;
9117;SDS011;4594;50.994;7.126;2023-12-20T10:48:55;8.70;;;3.83;;
9117;SDS011;4594;50.994;7.126;2023-12-20T10:51:23;7.47;;;3.40;;
9117;SDS011;4594;50.994;7.126;2023-12-20T10:53:51;9.23;;;3.47;;
9117;SDS011;4594;50.994;7.126;2023-12-20T10:56:18;9.87;;;3.83;;
9117;SDS011;4594;50.994;7.126;2023-12-20T10:58:46;5.07;;;3.47;;
9117;SDS011;4594;50.994;7.126;2023-12-20T11:01:15;6.47;;;3.63;;
9117;SDS011;4594;50.994;7.126;2023-12-20T11:03:44;7.43;;;3.80;;
9117;SDS011;4594;50.994;7.126;2023-12-20T11:09:29;3.83;;;3.20;;
9117;SDS011;4594;50.994;7.126;2023-12-20T11:12:19;8.07;;;3.67;;
9117;SDS011;4594;50.994;7.126;2023-12-20T11:14:57;8.50;;;3.67;;
9117;SDS011;4594;50.994;7.126;2023-12-20T11:17:29;5.60;;;3.33;;
9117;SDS011;4594;50.994;7.126;2023-12-20T11:22:25;5.83;;;3.43;;
9117;SDS011;4594;50.994;7.126;2023-12-20T11:25:14;7.33;;;3.63;;
9117;SDS011;4594;50.994;7.126;2023-12-20T11:27:40;7.40;;;3.83;;
9117;SDS011;4594;50.994;7.126;2023-12-20T11:30:10;15.37;;;4.03;;
9117;SDS011;4594;50.994;7.126;2023-12-20T11:32:36;5.90;;;3.00;;
9117;SDS011;4594;50.994;7.126;2023-12-20T11:37:37;10.33;;;4.20;;
9117;SDS011;4594;50.994;7.126;2023-12-20T11:40:11;9.13;;;3.43;;
9117;SDS011;4594;50.994;7.126;2023-12-20T11:42:40;9.10;;;3.83;;
9117;SDS011;4594;50.994;7.126;2023-12-20T11:45:14;5.87;;;3.10;;
9117;SDS011;4594;50.994;7.126;2023-12-20T11:47:45;10.97;;;3.60;;
9117;SDS011;4594;50.994;7.126;2023-12-20T11:50:14;9.13;;;3.43;;
9117;SDS011;4594;50.994;7.126;2023-12-20T11:52:41;8.13;;;3.80;;
9117;SDS011;4594;50.994;7.126;2023-12-20T11:55:07;11.70;;;3.60;;
9117;SDS011;4594;50.994;7.126;2023-12-20T11:57:32;9.77;;;3.73;;
9117;SDS011;4594;50.994;7.126;2023-12-20T11:59:59;11.73;;;3.60;;
9117;SDS011;4594;50.994;7.126;2023-12-20T12:02:25;12.13;;;3.63;;
9117;SDS011;4594;50.994;7.126;2023-12-20T12:04:50;7.83;;;3.33;;
9117;SDS011;4594;50.994;7.126;2023-12-20T12:07:16;8.23;;;3.17;;
9117;SDS011;4594;50.994;7.126;2023-12-20T12:09:42;8.43;;;4.10;;
9117;SDS011;4594;50.994;7.126;2023-12-20T12:12:09;11.50;;;4.03;;
9117;SDS011;4594;50.994;7.126;2023-12-20T12:14:37;8.27;;;3.27;;
9117;SDS011;4594;50.994;7.126;2023-12-20T12:17:05;5.33;;;3.20;;
9117;SDS011;4594;50.994;7.126;2023-12-20T12:19:39;6.83;;;3.67;;
9117;SDS011;4594;50.994;7.126;2023-12-20T12:22:09;9.03;;;3.13;;
9117;SDS011;4594;50.994;7.126;2023-12-20T12:24:46;7.37;;;3.57;;
9117;SDS011;4594;50.994;7.126;2023-12-20T12:27:12;5.63;;;3.73;;
9117;SDS011;4594;50.994;7.126;2023-12-20T12:29:38;9.93;;;3.67;;
9117;SDS011;4594;50.994;7.126;2023-12-20T12:32:05;8.47;;;3.30;;
9117;SDS011;4594;50.994;7.126;2023-12-20T12:34:33;8.53;;;3.33;;
9117;SDS011;4594;50.994;7.126;2023-12-20T12:37:00;5.87;;;3.30;;
9117;SDS011;4594;50.994;7.126;2023-12-20T12:39:27;8.03;;;3.30;;
9117;SDS011;4594;50.994;7.126;2023-12-20T12:41:54;7.83;;;3.10;;
9117;SDS011;4594;50.994;7.126;2023-12-20T12:44:22;10.20;;;3.80;;
9117;SDS011;4594;50.994;7.126;2023-12-20T12:46:49;7.37;;;3.27;;
9117;SDS011;4594;50.994;7.126;2023-12-20T12:49:16;6.57;;;3.30;;
9117;SDS011;4594;50.994;7.126;2023-12-20T12:51:42;6.20;;;3.13;;
9117;SDS011;4594;50.994;7.126;2023-12-20T12:54:08;11.17;;;3.90;;
9117;SDS011;4594;50.994;7.126;2023-12-20T12:56:35;4.27;;;3.00;;
9117;SDS011;4594;50.994;7.126;2023-12-20T12:59:01;5.97;;;3.13;;
9117;SDS011;4594;50.994;7.126;2023-12-20T13:01:27;4.50;;;2.90;;
9117;SDS011;4594;50.994;7.126;2023-12-20T13:03:53;6.13;;;3.10;;
9117;SDS011;4594;50.994;7.126;2023-12-20T13:06:19;10.93;;;3.17;;
9117;SDS011;4594;50.994;7.126;2023-12-20T13:08:45;11.57;;;4.07;;
9117;SDS011;4594;50.994;7.126;2023-12-20T13:11:11;8.97;;;3.27;;
9117;SDS011;4594;50.994;7.126;2023-12-20T13:13:37;7.07;;;3.43;;
9117;SDS011;4594;50.994;7.126;2023-12-20T13:16:02;6.37;;;3.40;;
9117;SDS011;4594;50.994;7.126;2023-12-20T13:18:29;7.60;;;3.53;;
9117;SDS011;4594;50.994;7.126;2023-12-20T13:20:54;5.80;;;3.33;;
9117;SDS011;4594;50.994;7.126;2023-12-20T13:23:20;7.63;;;3.90;;
9117;SDS011;4594;50.994;7.126;2023-12-20T13:25:46;11.70;;;3.60;;
9117;SDS011;4594;50.994;7.126;2023-12-20T13:28:11;10.70;;;3.80;;
9117;SDS011;4594;50.994;7.126;2023-12-20T13:30:38;6.80;;;3.70;;
9117;SDS011;4594;50.994;7.126;2023-12-20T13:33:04;7.13;;;3.43;;
9117;SDS011;4594;50.994;7.126;2023-12-20T13:35:31;9.67;;;3.77;;
9117;SDS011;4594;50.994;7.126;2023-12-20T13:37:58;10.00;;;3.80;;
9117;SDS011;4594;50.994;7.126;2023-12-20T13:40:25;7.43;;;3.70;;
9117;SDS011;4594;50.994;7.126;2023-12-20T13:42:51;7.03;;;4.10;;
9117;SDS011;4594;50.994;7.126;2023-12-20T13:45:17;11.17;;;4.37;;
9117;SDS011;4594;50.994;7.126;2023-12-20T13:47:43;7.87;;;4.07;;
9117;SDS011;4594;50.994;7.126;2023-12-20T13:50:08;8.73;;;4.03;;
9117;SDS011;4594;50.994;7.126;2023-12-20T13:52:34;8.07;;;4.00;;
9117;SDS011;4594;50.994;7.126;2023-12-20T13:55:01;10.60;;;4.00;;
9117;SDS011;4594;50.994;7.126;2023-12-20T13:57:27;5.70;;;4.10;;
9117;SDS011;4594;50.994;7.126;2023-12-20T13:59:54;7.73;;;3.83;;
9117;SDS011;4594;50.994;7.126;2023-12-20T14:02:22;7.57;;;3.30;;
9117;SDS011;4594;50.994;7.126;2023-12-20T14:04:48;7.73;;;3.80;;
9117;SDS011;4594;50.994;7.126;2023-12-20T14:07:14;5.03;;;3.43;;
9117;SDS011;4594;50.994;7.126;2023-12-20T14:09:40;6.63;;;3.37;;
9117;SDS011;4594;50.994;7.126;2023-12-20T14:12:10;3.23;;;2.87;;
9117;SDS011;4594;50.994;7.126;2023-12-20T14:14:37;5.50;;;3.27;;
9117;SDS011;4594;50.994;7.126;2023-12-20T14:17:03;4.97;;;3.23;;
9117;SDS011;4594;50.994;7.126;2023-12-20T14:19:31;5.00;;;3.37;;
9117;SDS011;4594;50.994;7.126;2023-12-20T14:21:57;5.17;;;3.10;;
9117;SDS011;4594;50.994;7.126;2023-12-20T14:24:26;5.20;;;3.07;;
9117;SDS011;4594;50.994;7.126;2023-12-20T14:26:52;8.63;;;3.23;;
9117;SDS011;4594;50.994;7.126;2023-12-20T14:29:18;3.50;;;3.00;;
9117;SDS011;4594;50.994;7.126;2023-12-20T14:31:44;9.80;;;3.27;;
9117;SDS011;4594;50.994;7.126;2023-12-20T14:34:10;6.20;;;3.47;;
9117;SDS011;4594;50.994;7.126;2023-12-20T14:36:36;6.67;;;3.10;;
9117;SDS011;4594;50.994;7.126;2023-12-20T14:39:03;8.83;;;3.53;;
9117;SDS011;4594;50.994;7.126;2023-12-20T14:41:29;3.97;;;3.33;;
9117;SDS011;4594;50.994;7.126;2023-12-20T14:43:56;5.20;;;3.60;;
9117;SDS011;4594;50.994;7.126;2023-12-20T14:46:21;3.53;;;3.17;;
9117;SDS011;4594;50.994;7.126;2023-12-20T14:48:47;7.73;;;3.70;;
9117;SDS011;4594;50.994;7.126;2023-12-20T14:51:14;5.37;;;3.27;;
9117;SDS011;4594;50.994;7.126;2023-12-20T14:53:40;7.23;;;3.50;;
9117;SDS011;4594;50.994;7.126;2023-12-20T14:56:07;6.20;;;3.37;;
9117;SDS011;4594;50.994;7.126;2023-12-20T14:58:33;7.90;;;3.20;;
9117;SDS011;4594;50.994;7.126;2023-12-20T15:00:59;5.03;;;3.03;;
9117;SDS011;4594;50.994;7.126;2023-12-20T15:03:25;5.43;;;3.13;;
9117;SDS011;4594;50.994;7.126;2023-12-20T15:05:51;9.90;;;3.43;;
9117;SDS011;4594;50.994;7.126;2023-12-20T15:08:17;7.03;;;3.10;;
9117;SDS011;4594;50.994;7.126;2023-12-20T15:10:42;4.13;;;3.13;;
9117;SDS011;4594;50.994;7.126;2023-12-20T15:13:08;5.30;;;3.30;;
9117;SDS011;4594;50.994;7.126;2023-12-20T15:15:34;7.67;;;3.30;;
9117;SDS011;4594;50.994;7.126;2023-12-20T15:18:00;4.17;;;3.07;;